Time;durP1;ratioP1;P1;durP2;ratioP2;P2;SDS_P1;SDS_P2;PMS_P1;PMS_P2;Temp;Humidity;BMP_temperature;BMP_pressure;BME280_temperature;BME280_humidity;BME280_pressure;Samples;Min_cycle;Max_cycle;Signal;HPM_P1;HPM_P2
2023/02/26 00:02:16;;;;;;;15.00;1.80;;;0.30;99.90;;;;;;5041021;28;20029;-72
2023/02/26 00:04:42;;;;;;;8.25;1.30;;;0.30;99.90;;;;;;5040686;28;20025;-72
2023/02/26 00:07:08;;;;;;;5.65;1.38;;;0.30;99.90;;;;;;5038270;28;20045;-73
2023/02/26 00:09:33;;;;;;;4.35;1.30;;;0.30;99.90;;;;;;5039376;28;20075;-72
2023/02/26 00:12:00;;;;;;;4.25;1.65;;;0.20;99.90;;;;;;5039302;28;20029;-72
2023/02/26 00:14:27;;;;;;;5.55;1.15;;;0.20;99.90;;;;;;5038863;28;20033;-74
2023/02/26 00:17:08;;;;;;;10.18;2.00;;;0.20;99.90;;;;;;5039654;28;20060;-72
2023/02/26 00:19:34;;;;;;;7.35;1.73;;;0.10;99.90;;;;;;5040150;28;20051;-72
2023/02/26 00:22:00;;;;;;;9.18;1.60;;;0.10;99.90;;;;;;5039177;28;20108;-72
2023/02/26 00:24:26;;;;;;;6.95;1.98;;;0.10;99.90;;;;;;5040636;28;20671;-72
2023/02/26 00:26:51;;;;;;;10.40;1.77;;;0.10;99.90;;;;;;5039042;28;20049;-73
2023/02/26 00:29:19;;;;;;;4.43;1.10;;;0.00;99.90;;;;;;5038357;28;20076;-72
2023/02/26 00:31:45;;;;;;;9.77;1.50;;;-0.10;99.90;;;;;;5040626;28;20036;-73
2023/02/26 00:34:12;;;;;;;13.77;1.80;;;-0.10;99.90;;;;;;5040549;28;20053;-72
2023/02/26 00:37:27;;;;;;;5.53;1.70;;;-0.10;99.90;;;;;;5038949;28;20028;-71
2023/02/26 00:40:19;;;;;;;7.47;1.40;;;-0.10;99.90;;;;;;5038999;28;20052;-74
2023/02/26 00:42:45;;;;;;;8.45;1.60;;;-0.10;99.90;;;;;;5038587;28;20036;-71
2023/02/26 00:45:12;;;;;;;8.15;1.58;;;-0.10;99.90;;;;;;5040554;28;20108;-72
2023/02/26 00:47:43;;;;;;;3.00;1.20;;;-0.10;99.90;;;;;;5040121;28;20756;-71
2023/02/26 00:50:23;;;;;;;8.80;1.60;;;-0.10;99.90;;;;;;5039938;28;20112;-73
2023/02/26 00:53:06;;;;;;;7.30;1.40;;;-0.10;99.90;;;;;;5039173;28;20164;-71
2023/02/26 00:55:32;;;;;;;14.45;1.58;;;-0.10;99.90;;;;;;5040181;28;20036;-71
2023/02/26 00:57:57;;;;;;;8.85;1.50;;;-0.10;99.90;;;;;;5038927;28;20022;-73
2023/02/26 01:00:23;;;;;;;11.18;1.42;;;-0.10;99.90;;;;;;5040721;28;20077;-71
2023/02/26 01:02:49;;;;;;;6.38;1.35;;;-0.10;99.90;;;;;;5040548;28;20021;-70
2023/02/26 01:05:16;;;;;;;4.50;1.23;;;-0.10;99.90;;;;;;5042340;28;20065;-72
2023/02/26 01:07:53;;;;;;;3.10;1.20;;;-0.10;99.90;;;;;;5043328;28;20531;-71
2023/02/26 01:10:19;;;;;;;4.95;1.25;;;-0.20;99.90;;;;;;5043820;28;20033;-72
2023/02/26 01:12:45;;;;;;;5.10;1.30;;;-0.20;99.90;;;;;;5042943;28;20119;-71
2023/02/26 01:15:12;;;;;;;7.18;1.30;;;-0.20;99.90;;;;;;5043912;28;20068;-71
2023/02/26 01:17:38;;;;;;;3.00;1.30;;;-0.20;99.90;;;;;;5043651;28;20089;-70
2023/02/26 01:20:29;;;;;;;6.65;1.20;;;-0.20;99.90;;;;;;5042618;28;20034;-71
2023/02/26 01:23:11;;;;;;;4.85;1.25;;;-0.30;99.90;;;;;;5043959;28;20036;-70
2023/02/26 01:25:57;;;;;;;4.68;1.13;;;-0.30;99.90;;;;;;5041785;28;20905;-72
2023/02/26 01:28:25;;;;;;;4.25;1.05;;;-0.30;99.90;;;;;;5042274;28;20061;-72
2023/02/26 01:30:56;;;;;;;3.88;1.10;;;-0.30;99.90;;;;;;5042270;28;20061;-71
2023/02/26 01:33:30;;;;;;;4.93;1.20;;;-0.40;99.90;;;;;;5043291;28;20089;-74
2023/02/26 01:36:14;;;;;;;4.13;1.40;;;-0.40;99.90;;;;;;5041737;28;20088;-72
2023/02/26 01:38:53;;;;;;;4.15;1.30;;;-0.40;99.90;;;;;;5041912;28;20037;-71
2023/02/26 01:41:30;;;;;;;6.75;1.15;;;-0.40;99.90;;;;;;5041984;28;20482;-71
2023/02/26 01:44:32;;;;;;;6.90;1.33;;;-0.40;99.90;;;;;;5043219;28;20098;-71
2023/02/26 01:47:20;;;;;;;7.03;1.55;;;-0.40;99.90;;;;;;5041915;28;20041;-72
2023/02/26 01:49:46;;;;;;;6.22;1.23;;;-0.40;99.90;;;;;;5043400;28;20575;-70
2023/02/26 01:52:31;;;;;;;4.40;1.50;;;-0.40;99.90;;;;;;5043380;28;20037;-72
2023/02/26 01:54:56;;;;;;;4.10;1.30;;;-0.30;99.90;;;;;;5041871;28;20045;-73
2023/02/26 01:57:23;;;;;;;4.35;1.25;;;-0.30;99.90;;;;;;5043296;28;20604;-73
2023/02/26 01:59:51;;;;;;;3.25;1.20;;;-0.40;99.90;;;;;;5042155;28;20052;-71
2023/02/26 02:02:24;;;;;;;3.25;1.08;;;-0.30;99.90;;;;;;5043519;28;20053;-73
2023/02/26 02:04:52;;;;;;;5.13;1.55;;;-0.40;99.90;;;;;;5041340;28;20041;-71
2023/02/26 02:07:18;;;;;;;7.32;1.25;;;-0.40;99.90;;;;;;5040140;28;20033;-74
2023/02/26 02:09:43;;;;;;;5.30;1.50;;;-0.30;99.90;;;;;;5043163;28;20060;-73
2023/02/26 02:12:19;;;;;;;4.60;1.40;;;-0.40;99.90;;;;;;5040945;28;20017;-72
2023/02/26 02:14:50;;;;;;;5.70;1.00;;;-0.40;99.90;;;;;;5042954;28;20052;-72
2023/02/26 02:17:33;;;;;;;5.57;1.42;;;-0.40;99.90;;;;;;5042839;28;20018;-73
2023/02/26 02:20:21;;;;;;;8.95;1.40;;;-0.50;99.90;;;;;;5042755;28;20030;-72
2023/02/26 02:23:16;;;;;;;5.95;1.25;;;-0.50;99.90;;;;;;5041520;28;20096;-75
2023/02/26 02:25:54;;;;;;;8.55;1.33;;;-0.50;99.90;;;;;;5041941;28;20049;-74
2023/02/26 02:28:48;;;;;;;4.25;1.40;;;-0.50;99.90;;;;;;5040836;28;20025;-72
2023/02/26 02:31:24;;;;;;;4.88;1.17;;;-0.50;99.90;;;;;;5021932;28;20050;-72
2023/02/26 02:33:54;;;;;;;3.92;1.42;;;-0.50;99.90;;;;;;5042691;28;20368;-73
2023/02/26 02:36:35;;;;;;;6.32;1.40;;;-0.50;99.90;;;;;;5042550;28;20022;-72
2023/02/26 02:39:36;;;;;;;6.63;1.30;;;-0.40;99.90;;;;;;5040715;28;20034;-72
2023/02/26 02:42:21;;;;;;;4.78;1.42;;;-0.40;99.90;;;;;;5040470;28;20052;-71
2023/02/26 02:44:54;;;;;;;3.63;1.13;;;-0.40;99.90;;;;;;5041320;28;20033;-71
2023/02/26 02:47:21;;;;;;;5.30;1.23;;;-0.40;99.90;;;;;;5042238;28;20029;-74
2023/02/26 02:50:08;;;;;;;5.82;1.27;;;-0.40;99.90;;;;;;5041259;28;20030;-72
2023/02/26 02:52:51;;;;;;;5.00;1.27;;;-0.40;99.90;;;;;;5039885;28;20025;-72
2023/02/26 02:55:25;;;;;;;3.97;1.27;;;-0.30;99.90;;;;;;5041412;28;20041;-71
2023/02/26 02:58:03;;;;;;;8.10;1.75;;;-0.30;99.90;;;;;;5042700;28;20061;-72
2023/02/26 03:00:33;;;;;;;5.80;1.73;;;-0.30;99.90;;;;;;5042877;28;20030;-71
2023/02/26 03:02:58;;;;;;;7.90;1.80;;;-0.30;99.90;;;;;;5042301;28;20029;-71
2023/02/26 03:05:24;;;;;;;6.47;1.85;;;-0.30;99.90;;;;;;5042772;28;20060;-71
2023/02/26 03:07:57;;;;;;;5.97;1.70;;;-0.30;99.90;;;;;;5042623;28;20040;-71
2023/02/26 03:10:23;;;;;;;14.60;1.60;;;-0.30;99.90;;;;;;5042932;28;20044;-72
2023/02/26 03:12:49;;;;;;;3.88;1.30;;;-0.30;99.90;;;;;;5041639;28;20074;-72
2023/02/26 03:15:30;;;;;;;7.30;1.60;;;-0.30;99.90;;;;;;5041653;28;20128;-70
2023/02/26 03:18:22;;;;;;;6.43;1.40;;;-0.40;99.90;;;;;;5042066;28;20044;-72
2023/02/26 03:21:18;;;;;;;5.60;1.50;;;-0.40;99.90;;;;;;5041133;28;20399;-72
2023/02/26 03:24:17;;;;;;;4.60;1.35;;;-0.50;99.90;;;;;;5042771;28;20033;-72
2023/02/26 03:27:18;;;;;;;3.80;1.20;;;-0.50;99.90;;;;;;5039816;28;20053;-72
2023/02/26 03:30:08;;;;;;;4.78;1.45;;;-0.50;99.90;;;;;;5041028;28;20025;-72
2023/02/26 03:32:57;;;;;;;4.55;1.20;;;-0.50;99.90;;;;;;5042390;28;20040;-73
2023/02/26 03:36:07;;;;;;;3.33;1.40;;;-0.50;99.90;;;;;;5042491;28;20124;-73
2023/02/26 03:38:45;;;;;;;5.47;1.70;;;-0.50;99.90;;;;;;5024673;28;20094;-72
2023/02/26 03:41:14;;;;;;;3.85;1.10;;;-0.50;99.90;;;;;;5041961;28;20093;-72
2023/02/26 03:44:01;;;;;;;7.13;1.55;;;-0.60;99.90;;;;;;5041827;28;20040;-72
2023/02/26 03:46:44;;;;;;;5.10;1.15;;;-0.60;99.90;;;;;;5041976;28;20022;-73
2023/02/26 03:49:17;;;;;;;3.53;1.35;;;-0.60;99.90;;;;;;5041663;28;20025;-72
2023/02/26 03:51:45;;;;;;;6.35;1.88;;;-0.60;99.90;;;;;;5040308;28;20100;-72
2023/02/26 03:54:17;;;;;;;7.25;1.30;;;-0.60;99.90;;;;;;5041353;28;20421;-72
2023/02/26 03:56:46;;;;;;;6.35;1.45;;;-0.70;99.90;;;;;;5042072;28;20032;-72
2023/02/26 03:59:14;;;;;;;4.63;1.30;;;-0.70;99.90;;;;;;5040858;28;20064;-71
2023/02/26 04:01:54;;;;;;;6.65;1.50;;;-0.70;99.90;;;;;;5041665;28;20045;-72
2023/02/26 04:04:34;;;;;;;4.93;1.30;;;-0.70;99.90;;;;;;5040745;28;20398;-74
2023/02/26 04:07:01;;;;;;;4.45;1.63;;;-0.70;99.90;;;;;;5041487;28;20025;-72
2023/02/26 04:09:26;;;;;;;2.25;1.02;;;-0.80;99.90;;;;;;5041619;28;20025;-73
2023/02/26 04:11:53;;;;;;;8.20;1.35;;;-0.80;99.90;;;;;;5041210;28;20034;-73
2023/02/26 04:14:19;;;;;;;4.47;1.38;;;-0.80;99.90;;;;;;5041131;28;20033;-72
2023/02/26 04:16:45;;;;;;;5.72;1.70;;;-0.80;99.90;;;;;;5039908;28;20025;-74
2023/02/26 04:19:10;;;;;;;7.53;1.20;;;-0.80;99.90;;;;;;5041560;28;20927;-72
2023/02/26 04:21:36;;;;;;;9.55;1.58;;;-0.80;99.90;;;;;;5040333;28;20466;-71
2023/02/26 04:24:02;;;;;;;7.57;1.45;;;-0.80;99.90;;;;;;5041795;28;20038;-71
2023/02/26 04:26:28;;;;;;;10.43;1.50;;;-0.80;99.90;;;;;;5040784;28;20042;-72
2023/02/26 04:28:54;;;;;;;5.18;1.38;;;-0.80;99.90;;;;;;5039579;28;20116;-72
2023/02/26 04:31:19;;;;;;;6.40;1.40;;;-0.80;99.90;;;;;;5039909;28;20036;-72
2023/02/26 04:33:45;;;;;;;2.97;1.25;;;-0.80;99.90;;;;;;5040767;28;20037;-71
2023/02/26 04:36:10;;;;;;;9.25;1.45;;;-0.80;99.90;;;;;;5039809;28;20052;-71
2023/02/26 04:38:36;;;;;;;8.15;1.48;;;-0.80;99.90;;;;;;5042782;28;20531;-73
2023/02/26 04:41:02;;;;;;;6.55;1.27;;;-0.80;99.90;;;;;;5047934;28;20038;-71
2023/02/26 04:43:27;;;;;;;6.75;1.27;;;-0.80;99.90;;;;;;5048113;28;20071;-73
2023/02/26 04:45:53;;;;;;;5.80;1.05;;;-0.80;99.90;;;;;;5048268;28;20030;-73
2023/02/26 04:48:19;;;;;;;4.60;1.48;;;-0.80;99.90;;;;;;5047596;28;20029;-72
2023/02/26 04:50:45;;;;;;;8.75;1.52;;;-0.80;99.90;;;;;;5046748;28;20478;-73
2023/02/26 04:53:10;;;;;;;10.43;1.90;;;-0.80;99.90;;;;;;5047897;28;20025;-72
2023/02/26 04:55:36;;;;;;;4.68;1.63;;;-0.80;99.90;;;;;;5046018;28;20549;-73
2023/02/26 04:58:02;;;;;;;5.45;1.20;;;-0.80;99.90;;;;;;5047904;28;20115;-73
2023/02/26 05:00:28;;;;;;;4.90;1.35;;;-0.90;99.90;;;;;;5047361;28;20049;-73
2023/02/26 05:02:54;;;;;;;7.05;1.52;;;-0.90;99.90;;;;;;5048065;28;20025;-73
2023/02/26 05:05:20;;;;;;;6.25;1.52;;;-0.90;99.90;;;;;;5048031;28;21377;-74
2023/02/26 05:07:45;;;;;;;7.90;1.10;;;-0.90;99.90;;;;;;5047713;28;20034;-74
2023/02/26 05:10:11;;;;;;;6.15;1.27;;;-0.90;99.90;;;;;;5047685;28;20017;-73
2023/02/26 05:12:37;;;;;;;3.80;1.23;;;-0.90;99.90;;;;;;5046318;28;20014;-74
2023/02/26 05:15:04;;;;;;;2.97;1.13;;;-1.00;99.90;;;;;;5047700;28;20103;-72
2023/02/26 05:17:29;;;;;;;6.03;1.30;;;-0.90;99.90;;;;;;5045991;28;20081;-71
2023/02/26 05:19:55;;;;;;;11.50;1.60;;;-0.90;99.90;;;;;;5046167;28;20044;-73
2023/02/26 05:22:20;;;;;;;4.15;0.98;;;-0.90;99.90;;;;;;5046547;28;20037;-72
2023/02/26 05:24:47;;;;;;;11.02;1.15;;;-0.90;99.90;;;;;;5047844;28;20109;-72
2023/02/26 05:27:13;;;;;;;5.85;1.77;;;-0.90;99.90;;;;;;5047538;28;20101;-73
2023/02/26 05:29:40;;;;;;;5.68;1.30;;;-0.90;99.90;;;;;;5046956;28;20501;-73
2023/02/26 05:32:06;;;;;;;5.60;1.50;;;-1.00;99.90;;;;;;5047694;28;20027;-74
2023/02/26 05:34:32;;;;;;;6.20;1.35;;;-1.00;99.90;;;;;;5046224;28;20051;-73
2023/02/26 05:36:58;;;;;;;6.35;1.30;;;-1.00;99.90;;;;;;5046472;28;20402;-73
2023/02/26 05:39:23;;;;;;;5.15;1.30;;;-1.00;99.90;;;;;;5047426;28;20536;-72
2023/02/26 05:41:50;;;;;;;7.35;1.45;;;-1.00;99.90;;;;;;5047149;28;20029;-72
2023/02/26 05:44:16;;;;;;;6.40;1.77;;;-1.00;99.90;;;;;;5046880;28;20376;-73
2023/02/26 05:46:42;;;;;;;6.93;1.50;;;-1.00;99.90;;;;;;5045787;28;21090;-74
2023/02/26 05:49:07;;;;;;;7.72;1.85;;;-1.00;99.90;;;;;;5047049;28;20025;-72
2023/02/26 05:51:33;;;;;;;8.38;1.75;;;-1.10;99.90;;;;;;5043870;28;20032;-72
2023/02/26 05:53:58;;;;;;;9.80;1.90;;;-1.10;99.90;;;;;;5043259;28;20037;-73
2023/02/26 05:56:24;;;;;;;4.88;1.73;;;-1.10;99.90;;;;;;5044179;28;20132;-72
2023/02/26 05:58:50;;;;;;;6.97;1.45;;;-1.10;99.90;;;;;;5044220;28;20037;-72
2023/02/26 06:01:16;;;;;;;6.15;1.42;;;-1.10;99.90;;;;;;5042353;28;20101;-71
2023/02/26 06:03:43;;;;;;;4.47;1.17;;;-1.10;99.90;;;;;;5043687;28;20093;-72
2023/02/26 06:06:10;;;;;;;5.68;1.50;;;-1.20;99.90;;;;;;5042919;28;20026;-73
2023/02/26 06:08:35;;;;;;;4.03;1.23;;;-1.20;99.90;;;;;;5042040;28;20030;-71
2023/02/26 06:11:01;;;;;;;6.82;1.60;;;-1.20;99.90;;;;;;5043808;28;20025;-73
2023/02/26 06:13:26;;;;;;;8.57;1.40;;;-1.20;99.90;;;;;;5042527;28;20195;-72
2023/02/26 06:15:52;;;;;;;7.57;1.33;;;-1.20;99.90;;;;;;5044262;28;20021;-72
2023/02/26 06:18:18;;;;;;;7.82;1.80;;;-1.20;99.90;;;;;;5042808;28;20028;-71
2023/02/26 06:20:43;;;;;;;8.80;2.22;;;-1.20;99.90;;;;;;5042372;28;20053;-73
2023/02/26 06:23:09;;;;;;;7.43;1.92;;;-1.20;99.90;;;;;;5040728;28;20057;-71
2023/02/26 06:25:35;;;;;;;11.48;2.90;;;-1.20;99.90;;;;;;5039938;28;20095;-72
2023/02/26 06:28:00;;;;;;;10.88;2.80;;;-1.20;99.90;;;;;;5043389;28;20049;-71
2023/02/26 06:30:26;;;;;;;8.30;2.40;;;-1.20;99.90;;;;;;5043564;28;20036;-72
2023/02/26 06:32:52;;;;;;;6.90;2.10;;;-1.20;99.90;;;;;;5041176;28;20029;-70
2023/02/26 06:35:18;;;;;;;4.38;2.00;;;-1.20;99.90;;;;;;5043320;28;20113;-71
2023/02/26 06:37:43;;;;;;;10.40;2.15;;;-1.20;99.90;;;;;;5043448;28;20017;-70
2023/02/26 06:40:10;;;;;;;9.98;2.00;;;-1.20;99.90;;;;;;5041236;28;20025;-71
2023/02/26 06:42:36;;;;;;;6.07;2.03;;;-1.20;99.90;;;;;;5036134;28;20056;-70
2023/02/26 06:45:02;;;;;;;9.10;2.28;;;-1.20;99.90;;;;;;5043086;28;20033;-70
2023/02/26 06:47:28;;;;;;;13.50;3.08;;;-1.20;99.90;;;;;;5039840;28;20033;-72
2023/02/26 06:49:53;;;;;;;10.35;3.00;;;-1.20;99.90;;;;;;5039534;28;20026;-73
2023/02/26 06:52:19;;;;;;;7.40;2.67;;;-1.20;99.90;;;;;;5040268;28;20037;-70
2023/02/26 06:54:45;;;;;;;4.13;2.20;;;-1.10;99.90;;;;;;5041123;28;20049;-70
2023/02/26 06:57:10;;;;;;;5.13;1.55;;;-1.10;99.90;;;;;;5040221;28;20060;-71
2023/02/26 06:59:36;;;;;;;4.72;1.67;;;-1.10;99.90;;;;;;5042343;28;20078;-71
2023/02/26 07:02:01;;;;;;;6.07;2.05;;;-1.10;99.90;;;;;;5041098;28;20049;-70
2023/02/26 07:04:27;;;;;;;4.53;2.10;;;-1.00;99.90;;;;;;5040444;28;20498;-69
2023/02/26 07:06:53;;;;;;;5.75;1.70;;;-1.00;99.90;;;;;;5030240;28;20032;-71
2023/02/26 07:09:19;;;;;;;11.75;2.50;;;-0.90;99.90;;;;;;5042026;28;20033;-71
2023/02/26 07:11:44;;;;;;;20.35;7.70;;;-0.90;99.90;;;;;;5039151;28;20033;-70
2023/02/26 07:14:10;;;;;;;12.40;4.57;;;-0.80;99.90;;;;;;5042160;28;20207;-70
2023/02/26 07:16:35;;;;;;;14.32;2.85;;;-0.70;99.90;;;;;;5042344;28;20048;-70
2023/02/26 07:19:01;;;;;;;7.38;3.85;;;-0.70;99.90;;;;;;5041627;28;20085;-70
2023/02/26 07:21:27;;;;;;;16.88;7.88;;;-0.70;99.90;;;;;;5041169;28;20033;-69
2023/02/26 07:23:52;;;;;;;11.90;5.40;;;-0.60;99.90;;;;;;5040340;28;20128;-70
2023/02/26 07:26:18;;;;;;;8.63;4.05;;;-0.60;99.90;;;;;;5041845;28;20034;-71
2023/02/26 07:28:44;;;;;;;9.10;3.20;;;-0.50;99.90;;;;;;5041359;28;20029;-70
2023/02/26 07:31:10;;;;;;;8.00;2.78;;;-0.40;99.90;;;;;;5038441;28;20043;-69
2023/02/26 07:33:38;;;;;;;11.27;2.80;;;-0.30;99.90;;;;;;5040105;28;20547;-69
2023/02/26 07:36:04;;;;;;;11.07;3.75;;;-0.20;99.90;;;;;;5041051;28;20048;-69
2023/02/26 07:38:30;;;;;;;6.32;2.60;;;-0.10;99.90;;;;;;5040484;28;20087;-69
2023/02/26 07:40:55;;;;;;;7.88;2.00;;;0.10;99.90;;;;;;5040079;28;20037;-69
2023/02/26 07:43:22;;;;;;;9.13;2.35;;;0.40;99.90;;;;;;5041569;28;20053;-69
2023/02/26 07:45:51;;;;;;;10.27;2.75;;;0.70;99.90;;;;;;5040535;28;20037;-69
2023/02/26 07:48:17;;;;;;;8.48;3.63;;;1.00;99.90;;;;;;5041772;28;20051;-68
2023/02/26 07:50:44;;;;;;;6.03;2.30;;;1.20;99.90;;;;;;5039722;28;20372;-69
2023/02/26 07:53:10;;;;;;;6.40;2.15;;;1.40;99.90;;;;;;5041197;28;20095;-69
2023/02/26 07:55:36;;;;;;;5.65;2.10;;;1.60;99.90;;;;;;5041819;28;20029;-68
2023/02/26 07:58:01;;;;;;;4.25;1.48;;;1.70;99.90;;;;;;5041773;28;20033;-70
2023/02/26 08:00:27;;;;;;;5.43;1.58;;;1.80;99.90;;;;;;5040635;28;20017;-70
2023/02/26 08:02:52;;;;;;;7.03;1.80;;;2.00;99.90;;;;;;5040918;28;20044;-69
2023/02/26 08:05:18;;;;;;;5.47;1.95;;;2.10;99.90;;;;;;5039676;28;20112;-70
2023/02/26 08:07:44;;;;;;;4.57;2.00;;;2.30;99.90;;;;;;5039862;28;20030;-69
2023/02/26 08:10:10;;;;;;;8.07;1.88;;;2.50;99.90;;;;;;5040526;28;20037;-69
2023/02/26 08:12:35;;;;;;;4.68;1.58;;;2.70;99.90;;;;;;5041555;28;20026;-69
2023/02/26 08:15:01;;;;;;;7.07;2.10;;;2.80;99.90;;;;;;5040045;28;20067;-70
2023/02/26 08:17:27;;;;;;;5.50;1.88;;;2.80;99.90;;;;;;5040069;28;20040;-69
2023/02/26 08:19:53;;;;;;;4.50;1.92;;;2.90;99.90;;;;;;5040382;28;20026;-69
2023/02/26 08:22:19;;;;;;;6.85;1.90;;;3.00;99.90;;;;;;5039285;28;20033;-70
2023/02/26 08:24:45;;;;;;;5.25;1.92;;;3.20;99.90;;;;;;5038773;28;20029;-70
2023/02/26 08:27:11;;;;;;;5.35;1.92;;;3.50;99.90;;;;;;5038228;28;20072;-70
2023/02/26 08:29:36;;;;;;;6.60;1.80;;;3.60;99.90;;;;;;5036237;28;20541;-69
2023/02/26 08:32:02;;;;;;;5.10;1.45;;;3.70;99.90;;;;;;5040603;28;20037;-70
2023/02/26 08:34:27;;;;;;;4.20;1.48;;;3.70;99.90;;;;;;5041039;28;20041;-69
2023/02/26 08:36:53;;;;;;;6.18;1.60;;;3.80;99.90;;;;;;5037618;28;20044;-69
2023/02/26 08:39:18;;;;;;;4.68;1.92;;;4.00;99.90;;;;;;5035803;28;20148;-71
2023/02/26 08:41:44;;;;;;;6.13;1.25;;;4.10;99.90;;;;;;5041439;28;20523;-70
2023/02/26 08:44:10;;;;;;;6.82;1.70;;;4.20;99.90;;;;;;5040925;28;20048;-70
2023/02/26 08:46:35;;;;;;;6.65;1.70;;;4.40;99.90;;;;;;5039086;28;20056;-70
2023/02/26 08:49:01;;;;;;;5.68;1.48;;;4.40;99.90;;;;;;5039753;28;20040;-71
2023/02/26 08:51:27;;;;;;;7.60;1.73;;;4.40;99.90;;;;;;5042088;28;20089;-70
2023/02/26 08:53:53;;;;;;;4.40;1.55;;;4.50;99.90;;;;;;5037580;28;20115;-70
2023/02/26 08:56:18;;;;;;;4.40;1.55;;;4.60;99.90;;;;;;5036823;28;20017;-70
2023/02/26 08:58:44;;;;;;;4.47;1.60;;;4.70;99.90;;;;;;5037045;28;20037;-69
2023/02/26 09:01:09;;;;;;;4.97;1.35;;;4.90;99.90;;;;;;5037271;28;20048;-70
2023/02/26 09:03:35;;;;;;;4.60;1.10;;;5.00;99.90;;;;;;5036763;28;20056;-69
2023/02/26 09:06:01;;;;;;;7.93;1.92;;;5.30;99.90;;;;;;5036181;28;20038;-68
2023/02/26 09:08:27;;;;;;;9.80;1.80;;;5.20;99.90;;;;;;5040191;28;20171;-71
2023/02/26 09:10:52;;;;;;;4.03;1.60;;;5.30;99.90;;;;;;5041364;28;20021;-68
2023/02/26 09:13:18;;;;;;;4.60;1.48;;;5.40;99.90;;;;;;5037256;28;20033;-69
2023/02/26 09:15:44;;;;;;;4.22;1.30;;;5.40;99.90;;;;;;5035507;28;20053;-69
2023/02/26 09:18:14;;;;;;;4.57;1.30;;;5.50;99.90;;;;;;5035246;28;20052;-69
2023/02/26 09:20:41;;;;;;;7.07;1.50;;;5.70;99.90;;;;;;5037426;28;20572;-68
2023/02/26 09:23:07;;;;;;;3.65;1.30;;;5.90;99.90;;;;;;5036233;28;20029;-69
2023/02/26 09:25:32;;;;;;;3.42;1.10;;;6.00;99.90;;;;;;5038340;28;20049;-69
2023/02/26 09:27:58;;;;;;;6.18;1.20;;;6.10;99.90;;;;;;5043788;28;20040;-69
2023/02/26 09:30:24;;;;;;;2.53;1.17;;;6.00;99.90;;;;;;5044664;28;20029;-68
2023/02/26 09:32:49;;;;;;;6.00;1.25;;;6.10;99.90;;;;;;5043509;28;20036;-70
2023/02/26 09:35:15;;;;;;;4.65;1.40;;;6.20;99.90;;;;;;5041274;28;20037;-68
2023/02/26 09:37:40;;;;;;;6.65;2.10;;;6.20;99.90;;;;;;5042329;28;20041;-69
2023/02/26 09:40:07;;;;;;;3.45;1.70;;;6.30;99.90;;;;;;5041301;28;20026;-70
2023/02/26 09:43:06;;;;;;;4.30;1.55;;;6.20;99.90;;;;;;5043192;28;20080;-68
2023/02/26 09:45:41;;;;;;;3.25;1.10;;;6.10;99.90;;;;;;5043929;28;20026;-69
2023/02/26 09:48:11;;;;;;;6.78;1.60;;;6.10;99.90;;;;;;5044167;28;20036;-69
2023/02/26 09:50:48;;;;;;;4.97;1.40;;;6.30;99.90;;;;;;5044507;28;20034;-69
2023/02/26 09:53:34;;;;;;;4.45;1.05;;;6.30;99.90;;;;;;5041808;28;20048;-69
2023/02/26 09:56:07;;;;;;;4.38;1.17;;;6.20;99.90;;;;;;5042280;28;20029;-69
2023/02/26 09:58:39;;;;;;;3.13;1.13;;;6.30;99.90;;;;;;5042988;28;20042;-69
2023/02/26 10:01:14;;;;;;;5.93;0.90;;;6.20;99.90;;;;;;5043807;28;20025;-68
2023/02/26 10:04:11;;;;;;;3.38;1.00;;;6.40;99.90;;;;;;5041876;28;20052;-69
2023/02/26 10:07:21;;;;;;;6.78;1.40;;;6.60;99.90;;;;;;5042253;28;20115;-68
2023/02/26 10:10:07;;;;;;;4.50;1.75;;;6.90;99.90;;;;;;5035688;28;20108;-70
2023/02/26 10:12:37;;;;;;;5.38;1.40;;;7.20;99.90;;;;;;5042129;28;20029;-69
2023/02/26 10:15:18;;;;;;;6.78;1.40;;;7.30;99.90;;;;;;5042280;28;20097;-69
2023/02/26 10:18:05;;;;;;;5.70;1.38;;;7.10;99.90;;;;;;5040510;28;20037;-69
2023/02/26 10:20:54;;;;;;;6.88;1.45;;;6.80;99.90;;;;;;5042198;28;20104;-69
2023/02/26 10:23:49;;;;;;;6.60;1.20;;;6.60;99.90;;;;;;5041743;28;20052;-68
2023/02/26 10:26:39;;;;;;;4.43;1.35;;;6.50;99.90;;;;;;5043251;28;20077;-68
2023/02/26 10:29:19;;;;;;;4.82;1.10;;;6.30;99.90;;;;;;5043040;28;20053;-68
2023/02/26 10:31:50;;;;;;;4.10;1.30;;;6.50;99.90;;;;;;5041358;28;20475;-69
2023/02/26 10:34:31;;;;;;;2.88;0.80;;;6.50;99.90;;;;;;5039366;28;20061;-71
2023/02/26 10:37:18;;;;;;;3.05;0.93;;;6.50;99.90;;;;;;5039081;28;20095;-70
2023/02/26 10:39:54;;;;;;;2.50;0.90;;;6.30;99.90;;;;;;5038453;28;20045;-70
2023/02/26 10:42:27;;;;;;;4.22;1.20;;;6.20;99.90;;;;;;5042745;28;20107;-70
2023/02/26 10:45:22;;;;;;;2.92;0.80;;;6.30;99.90;;;;;;5040884;28;20028;-72
2023/02/26 10:48:09;;;;;;;9.13;1.83;;;6.50;99.90;;;;;;5043686;28;20343;-68
2023/02/26 10:50:35;;;;;;;9.68;2.50;;;6.40;99.90;;;;;;5041036;28;20037;-70
2023/02/26 10:53:02;;;;;;;6.88;1.45;;;6.50;99.90;;;;;;5041224;28;20093;-70
2023/02/26 10:55:38;;;;;;;3.35;1.02;;;6.80;99.90;;;;;;5040506;28;20094;-69
2023/02/26 10:58:12;;;;;;;5.10;1.48;;;7.00;99.90;;;;;;5040068;28;20025;-70
2023/02/26 11:00:40;;;;;;;5.45;1.80;;;6.90;99.90;;;;;;5040992;28;20029;-70
2023/02/26 11:03:07;;;;;;;3.60;1.20;;;7.10;99.90;;;;;;5042080;28;20032;-70
2023/02/26 11:05:34;;;;;;;4.75;0.80;;;7.50;99.90;;;;;;5039504;28;20040;-69
2023/02/26 11:08:04;;;;;;;2.22;0.80;;;8.00;99.90;;;;;;5039067;28;20022;-69
2023/02/26 11:10:49;;;;;;;2.78;0.82;;;8.50;99.90;;;;;;5037604;28;20064;-70
2023/02/26 11:13:15;;;;;;;2.50;0.60;;;8.90;99.90;;;;;;5038192;28;20044;-71
2023/02/26 11:15:42;;;;;;;5.68;0.88;;;9.20;99.90;;;;;;5037016;28;20109;-69
2023/02/26 11:18:17;;;;;;;3.65;0.70;;;9.10;99.90;;;;;;5037500;28;20080;-70
2023/02/26 11:20:44;;;;;;;4.18;1.02;;;8.70;99.90;;;;;;5041332;28;20026;-69
2023/02/26 11:23:13;;;;;;;1.58;0.90;;;8.40;99.90;;;;;;5040613;28;20029;-68
2023/02/26 11:25:39;;;;;;;2.28;0.82;;;8.00;99.90;;;;;;5041671;28;20101;-69
2023/02/26 11:28:17;;;;;;;3.78;0.63;;;7.60;99.90;;;;;;5042211;28;20494;-69
2023/02/26 11:30:44;;;;;;;2.90;0.75;;;7.20;99.90;;;;;;5039801;28;20456;-69
2023/02/26 11:33:27;;;;;;;3.33;0.85;;;6.90;99.90;;;;;;5041310;28;20025;-70
2023/02/26 11:35:59;;;;;;;3.40;0.95;;;7.20;99.90;;;;;;5040984;28;20026;-70
2023/02/26 11:38:26;;;;;;;2.50;0.82;;;7.60;99.90;;;;;;5040849;28;20060;-69
2023/02/26 11:40:55;;;;;;;3.13;1.05;;;7.80;99.90;;;;;;5042079;28;20044;-70
2023/02/26 11:43:23;;;;;;;3.55;0.85;;;8.20;99.90;;;;;;5041771;28;20056;-70
2023/02/26 11:46:00;;;;;;;4.35;0.90;;;8.30;99.90;;;;;;5037880;28;20017;-70
2023/02/26 11:48:38;;;;;;;5.28;0.70;;;8.60;99.90;;;;;;5038226;28;20033;-71
2023/02/26 11:51:06;;;;;;;4.90;0.80;;;9.00;99.90;;;;;;5039044;28;20029;-69
2023/02/26 11:53:38;;;;;;;2.72;0.70;;;9.10;99.90;;;;;;5036171;28;20034;-71
2023/02/26 11:56:13;;;;;;;2.92;1.00;;;9.80;99.90;;;;;;5034339;28;20041;-69
2023/02/26 11:58:42;;;;;;;2.55;0.70;;;10.50;99.90;;;;;;5037084;28;20421;-69
2023/02/26 12:01:11;;;;;;;5.97;1.30;;;10.80;99.90;;;;;;5039527;28;20029;-69
2023/02/26 12:03:43;;;;;;;4.68;1.10;;;11.20;99.90;;;;;;5041131;28;20068;-69
2023/02/26 12:06:17;;;;;;;2.10;0.65;;;11.60;99.90;;;;;;5040707;28;20060;-69
2023/02/26 12:08:42;;;;;;;;;;;12.00;99.90;;;;;;5041042;28;20030;-69
2023/02/26 12:11:19;;;;;;;3.60;0.63;;;12.60;99.90;;;;;;5040853;28;19920;-70
2023/02/26 12:14:13;;;;;;;3.50;1.00;;;12.80;99.90;;;;;;5040202;28;20049;-68
2023/02/26 12:16:50;;;;;;;3.80;0.70;;;12.60;99.90;;;;;;5040898;28;20033;-70
2023/02/26 12:19:48;;;;;;;3.95;0.90;;;12.10;99.90;;;;;;5040972;28;20089;-69
2023/02/26 12:22:47;;;;;;;3.92;1.13;;;11.20;99.90;;;;;;5042055;28;20021;-70
2023/02/26 12:25:46;;;;;;;3.28;0.80;;;10.90;99.90;;;;;;5041249;28;20192;-70
2023/02/26 12:28:26;;;;;;;4.97;0.93;;;11.40;99.90;;;;;;5040583;28;20057;-69
2023/02/26 12:30:52;;;;;;;3.13;0.85;;;11.40;99.90;;;;;;5041574;28;20025;-70
2023/02/26 12:33:42;;;;;;;1.60;0.60;;;11.70;99.90;;;;;;5042169;28;20036;-71
2023/02/26 12:36:23;;;;;;;1.70;0.50;;;12.10;99.90;;;;;;5041493;28;20029;-70
2023/02/26 12:39:06;;;;;;;3.40;1.00;;;12.30;99.90;;;;;;5042127;28;20024;-69
2023/02/26 12:41:41;;;;;;;3.90;0.70;;;12.80;99.90;;;;;;5038941;28;20029;-72
2023/02/26 12:44:20;;;;;;;2.40;0.55;;;13.30;99.90;;;;;;5039170;28;20036;-71
2023/02/26 12:46:51;;;;;;;1.20;0.47;;;13.60;99.90;;;;;;5037001;28;20030;-71
2023/02/26 12:49:39;;;;;;;3.45;0.70;;;13.60;99.90;;;;;;5040948;28;20465;-69
2023/02/26 12:52:05;;;;;;;3.78;1.10;;;13.60;99.90;;;;;;5037736;28;20068;-70
2023/02/26 12:54:30;;;;;;;3.08;0.93;;;13.40;99.90;;;;;;5039517;28;20041;-69
2023/02/26 12:57:15;;;;;;;3.13;0.90;;;12.90;99.90;;;;;;5040010;28;20029;-70
2023/02/26 13:00:16;;;;;;;6.20;1.60;;;12.00;99.90;;;;;;5041401;28;20025;-70
2023/02/26 13:02:44;;;;;;;2.30;1.20;;;11.30;99.90;;;;;;5036058;28;20383;-70
2023/02/26 13:05:28;;;;;;;2.05;0.77;;;10.60;99.90;;;;;;5042012;28;20064;-71
2023/02/26 13:07:56;;;;;;;5.40;1.30;;;10.50;99.90;;;;;;5037950;28;20022;-69
2023/02/26 13:11:01;;;;;;;6.28;1.10;;;11.00;99.90;;;;;;5036149;28;20032;-70
2023/02/26 13:14:05;;;;;;;6.68;1.25;;;11.50;99.90;;;;;;5037314;28;20562;-71
2023/02/26 13:17:21;;;;;;;3.15;1.10;;;11.70;99.90;;;;;;5039199;28;20044;-70